Time;durP1;ratioP1;P1;durP2;ratioP2;P2;SDS_P1;SDS_P2;PMS_P1;PMS_P2;Temp;Humidity;BMP_temperature;BMP_pressure;BME280_temperature;BME280_humidity;BME280_pressure;Samples;Min_cycle;Max_cycle;Signal;HPM_P1;HPM_P2
2024/01/17 00:02:11;;;;;;;10.38;5.57;;;-3.70;99.90;;;;;;4945528;28;20040;-59
2024/01/17 00:04:38;;;;;;;13.32;6.20;;;-3.70;99.90;;;;;;4963704;28;20068;-60
2024/01/17 00:07:05;;;;;;;10.48;5.22;;;-3.70;99.90;;;;;;4952991;28;20054;-60
2024/01/17 00:09:32;;;;;;;;;;;-3.70;99.90;;;;;;4953092;29;20174;-60
2024/01/17 00:12:03;;;;;;;17.35;5.50;;;-3.60;99.90;;;;;;4947962;29;20208;-56
2024/01/17 00:14:30;;;;;;;11.57;5.40;;;-3.60;99.90;;;;;;4952710;28;20051;-60
2024/01/17 00:16:57;;;;;;;11.68;5.65;;;-3.60;99.90;;;;;;4951621;28;20035;-60
2024/01/17 00:19:24;;;;;;;11.18;5.60;;;-3.60;99.90;;;;;;4950518;29;20562;-58
2024/01/17 00:21:51;;;;;;;10.23;4.53;;;-3.60;99.90;;;;;;4952086;29;20051;-58
2024/01/17 00:24:17;;;;;;;19.48;4.20;;;-3.60;99.90;;;;;;4952794;28;20087;-58
2024/01/17 00:26:44;;;;;;;12.50;5.22;;;-3.60;99.90;;;;;;4952654;29;20047;-57
2024/01/17 00:29:11;;;;;;;11.68;5.65;;;-3.60;99.90;;;;;;4950013;29;20058;-59
2024/01/17 00:31:38;;;;;;;9.15;4.72;;;-3.60;99.90;;;;;;4951250;29;20047;-60
2024/01/17 00:34:05;;;;;;;16.83;6.75;;;-3.50;99.90;;;;;;4952387;28;20126;-60
2024/01/17 00:36:32;;;;;;;8.35;4.80;;;-3.50;99.90;;;;;;4948402;29;20497;-59
2024/01/17 00:38:59;;;;;;;13.63;6.18;;;-3.40;99.90;;;;;;4952407;29;20107;-60
2024/01/17 00:41:26;;;;;;;10.70;5.15;;;-3.40;99.90;;;;;;4951864;29;20104;-60
2024/01/17 00:43:52;;;;;;;11.10;5.75;;;-3.40;99.90;;;;;;4952365;28;20082;-60
2024/01/17 00:46:20;;;;;;;12.23;5.57;;;-3.30;99.90;;;;;;4950797;29;20043;-58
2024/01/17 00:48:47;;;;;;;14.80;6.28;;;-3.30;99.90;;;;;;4952276;29;20490;-58
2024/01/17 00:51:24;;;;;;;11.02;5.75;;;-3.30;99.90;;;;;;4952317;29;20047;-61
2024/01/17 00:53:53;;;;;;;9.75;5.32;;;-3.20;99.90;;;;;;4952140;28;20524;-60
2024/01/17 00:56:20;;;;;;;13.88;5.53;;;-3.20;99.90;;;;;;4948756;29;20142;-60
2024/01/17 00:58:46;;;;;;;13.40;5.88;;;-3.10;99.90;;;;;;4952268;29;20039;-60
2024/01/17 01:01:13;;;;;;;14.90;5.55;;;-3.10;99.90;;;;;;4952142;29;20066;-60
2024/01/17 01:03:40;;;;;;;11.15;5.70;;;-3.10;99.90;;;;;;4949069;28;20044;-60
2024/01/17 01:06:07;;;;;;;11.50;5.35;;;-3.10;99.90;;;;;;4952132;29;20051;-60
2024/01/17 01:08:34;;;;;;;13.48;6.05;;;-3.10;99.90;;;;;;4953078;28;20051;-59
2024/01/17 01:11:00;;;;;;;9.27;4.95;;;-3.00;99.90;;;;;;4957392;28;20512;-59
2024/01/17 01:13:27;;;;;;;13.80;6.43;;;-3.00;99.90;;;;;;4955290;28;20051;-60
2024/01/17 01:15:54;;;;;;;14.90;6.40;;;-3.00;99.90;;;;;;4952184;28;20404;-59
2024/01/17 01:18:21;;;;;;;13.00;5.35;;;-3.00;99.90;;;;;;4952355;29;20118;-58
2024/01/17 01:20:48;;;;;;;10.90;5.38;;;-3.00;99.90;;;;;;4945622;29;20039;-60
2024/01/17 01:23:14;;;;;;;12.32;5.05;;;-3.00;99.90;;;;;;4945346;29;20122;-56
2024/01/17 01:25:41;;;;;;;14.65;6.10;;;-2.90;99.90;;;;;;4950752;28;20035;-58
2024/01/17 01:28:08;;;;;;;10.80;5.32;;;-2.90;99.90;;;;;;4944406;29;20043;-58
2024/01/17 01:30:35;;;;;;;10.10;5.38;;;-3.00;99.90;;;;;;4952078;28;20110;-57
2024/01/17 01:33:02;;;;;;;14.40;6.90;;;-3.00;99.90;;;;;;4940393;29;20122;-59
2024/01/17 01:35:29;;;;;;;;;;;-3.00;99.90;;;;;;4955502;28;20409;-60
2024/01/17 01:37:55;;;;;;;16.23;7.13;;;-3.00;99.90;;;;;;4950820;29;20013;-60
2024/01/17 01:40:22;;;;;;;13.52;6.03;;;-3.00;99.90;;;;;;4932150;29;20047;-61
2024/01/17 01:42:49;;;;;;;16.05;6.95;;;-3.00;99.90;;;;;;4952226;28;20439;-60
2024/01/17 01:45:16;;;;;;;15.95;6.32;;;-3.00;99.90;;;;;;4954440;28;20043;-59
2024/01/17 01:47:43;;;;;;;;;;;-3.00;99.90;;;;;;4953877;29;20389;-58
2024/01/17 01:50:11;;;;;;;14.27;6.85;;;-3.00;99.90;;;;;;4936678;29;19986;-60
2024/01/17 01:52:38;;;;;;;;;;;-3.00;99.90;;;;;;4951483;29;20127;-59
2024/01/17 01:55:06;;;;;;;15.15;6.55;;;-3.00;99.90;;;;;;4953765;28;22747;-59
2024/01/17 01:57:36;;;;;;;17.27;6.13;;;-3.00;99.90;;;;;;4954861;29;20073;-59
2024/01/17 02:00:04;;;;;;;14.35;6.85;;;-2.90;99.90;;;;;;4954631;29;20493;-58
2024/01/17 02:02:39;;;;;;;16.65;6.90;;;-3.00;99.90;;;;;;4951914;29;20047;-60
2024/01/17 02:05:06;;;;;;;15.30;6.38;;;-2.90;99.90;;;;;;4953978;28;20047;-59
2024/01/17 02:07:33;;;;;;;12.05;6.20;;;-2.90;99.90;;;;;;4954652;29;20608;-59
2024/01/17 02:10:01;;;;;;;13.10;6.72;;;-2.90;99.90;;;;;;4956877;28;20145;-60
2024/01/17 02:12:28;;;;;;;15.10;6.30;;;-3.00;99.90;;;;;;4954575;29;20039;-59
2024/01/17 02:14:55;;;;;;;12.48;5.95;;;-3.00;99.90;;;;;;4954179;28;20043;-59
2024/01/17 02:17:22;;;;;;;12.55;5.95;;;-3.10;99.90;;;;;;4937431;29;20067;-60
2024/01/17 02:19:49;;;;;;;9.13;5.40;;;-3.00;99.90;;;;;;4947054;29;20054;-58
2024/01/17 02:22:16;;;;;;;9.10;5.00;;;-2.90;99.90;;;;;;4948503;29;20050;-60
2024/01/17 02:24:43;;;;;;;;;;;-2.80;99.90;;;;;;4949243;28;20035;-57
2024/01/17 02:27:10;;;;;;;13.23;5.18;;;-2.80;99.90;;;;;;4953578;29;20295;-59
2024/01/17 02:29:37;;;;;;;12.13;6.05;;;-2.70;99.90;;;;;;4953896;29;20044;-59
2024/01/17 02:32:04;;;;;;;11.27;5.30;;;-2.70;99.90;;;;;;4954303;29;20083;-56
2024/01/17 02:34:32;;;;;;;9.93;5.57;;;-2.70;99.90;;;;;;4946965;29;20126;-60
2024/01/17 02:36:59;;;;;;;12.32;6.35;;;-2.70;99.90;;;;;;4954385;29;20051;-60
2024/01/17 02:39:26;;;;;;;13.38;5.72;;;-2.60;99.90;;;;;;4946069;29;20039;-60
2024/01/17 02:41:53;;;;;;;21.55;6.40;;;-2.60;99.90;;;;;;4954051;29;20067;-58
2024/01/17 02:44:20;;;;;;;12.25;5.55;;;-2.60;99.90;;;;;;4952831;28;20047;-60
2024/01/17 02:46:47;;;;;;;;;;;-2.60;99.90;;;;;;4954624;29;20043;-59
2024/01/17 02:49:19;;;;;;;10.75;5.18;;;-2.60;99.90;;;;;;4947570;29;19923;-58
2024/01/17 02:51:46;;;;;;;14.30;5.97;;;-2.60;99.90;;;;;;4954139;29;20103;-60
2024/01/17 02:54:13;;;;;;;13.35;5.20;;;-2.60;99.90;;;;;;4947401;28;20504;-60
2024/01/17 02:56:40;;;;;;;14.63;5.50;;;-2.60;99.90;;;;;;4954025;29;20074;-60
2024/01/17 02:59:07;;;;;;;13.90;5.93;;;-2.60;99.90;;;;;;4953071;29;20055;-59
2024/01/17 03:01:34;;;;;;;12.65;5.78;;;-2.60;99.90;;;;;;4956537;28;20126;-58
2024/01/17 03:04:02;;;;;;;13.25;6.00;;;-2.60;99.90;;;;;;4951839;28;20102;-58
2024/01/17 03:06:28;;;;;;;11.95;5.47;;;-2.70;99.90;;;;;;4954161;29;20039;-60
2024/01/17 03:08:55;;;;;;;14.27;6.43;;;-2.70;99.90;;;;;;4953831;29;20039;-60
2024/01/17 03:11:22;;;;;;;12.05;5.72;;;-2.70;99.90;;;;;;4946420;29;20047;-60
2024/01/17 03:13:50;;;;;;;11.10;5.30;;;-2.60;99.90;;;;;;4953432;28;20051;-59
2024/01/17 03:16:19;;;;;;;13.13;6.43;;;-2.70;99.90;;;;;;4953403;29;20047;-59
2024/01/17 03:18:46;;;;;;;13.70;6.03;;;-2.70;99.90;;;;;;4948906;29;20043;-59
2024/01/17 03:21:13;;;;;;;;;;;-2.70;99.90;;;;;;4948306;29;20515;-58
2024/01/17 03:23:40;;;;;;;18.88;6.70;;;-2.70;99.90;;;;;;4953195;28;19926;-58
2024/01/17 03:26:07;;;;;;;12.90;6.20;;;-2.60;99.90;;;;;;4953224;29;20044;-60
2024/01/17 03:28:35;;;;;;;13.38;6.60;;;-2.70;99.90;;;;;;4949906;29;20044;-60
2024/01/17 03:31:02;;;;;;;18.42;7.28;;;-2.70;99.90;;;;;;4950980;29;20047;-59
2024/01/17 03:33:28;;;;;;;;;;;-2.70;99.90;;;;;;4953802;29;20107;-60
2024/01/17 03:35:55;;;;;;;12.05;6.07;;;-2.60;99.90;;;;;;4952932;29;19922;-57
2024/01/17 03:38:22;;;;;;;13.55;6.32;;;-2.60;99.90;;;;;;4947743;29;20098;-59
2024/01/17 03:40:49;;;;;;;13.75;6.68;;;-2.60;99.90;;;;;;4953225;29;20043;-57
2024/01/17 03:43:16;;;;;;;15.57;6.95;;;-2.50;99.90;;;;;;4952829;29;20046;-60
2024/01/17 03:45:44;;;;;;;14.05;6.00;;;-2.50;99.90;;;;;;4950001;28;20163;-59
2024/01/17 03:48:11;;;;;;;13.02;6.05;;;-2.50;99.90;;;;;;4953207;29;20055;-60
2024/01/17 03:50:38;;;;;;;16.65;6.20;;;-2.50;99.90;;;;;;4952910;29;20039;-60
2024/01/17 03:53:05;;;;;;;16.13;6.30;;;-2.50;99.90;;;;;;4951999;28;20051;-59
2024/01/17 03:55:33;;;;;;;;;;;-2.50;99.90;;;;;;4952731;28;20039;-59
2024/01/17 03:58:00;;;;;;;12.18;6.20;;;-2.60;99.90;;;;;;4953152;29;20353;-60
2024/01/17 04:00:27;;;;;;;16.30;7.22;;;-2.50;99.90;;;;;;4953262;29;20065;-59
2024/01/17 04:02:53;;;;;;;15.73;7.82;;;-2.50;99.90;;;;;;4945297;28;20035;-58
2024/01/17 04:05:20;;;;;;;19.13;7.30;;;-2.40;99.90;;;;;;4951527;28;20062;-59
2024/01/17 04:07:47;;;;;;;15.05;7.38;;;-2.40;99.90;;;;;;4952505;29;20058;-60
2024/01/17 04:10:15;;;;;;;14.40;6.85;;;-2.30;99.90;;;;;;4953057;29;20035;-57
2024/01/17 04:12:42;;;;;;;20.98;8.07;;;-2.30;99.90;;;;;;4944920;29;20404;-58
2024/01/17 04:15:08;;;;;;;14.32;7.57;;;-2.20;99.90;;;;;;4954063;28;20039;-59
2024/01/17 04:17:36;;;;;;;18.27;7.38;;;-2.20;99.90;;;;;;4951464;28;20047;-60
2024/01/17 04:20:04;;;;;;;18.55;6.75;;;-2.30;99.90;;;;;;4952807;28;20039;-60
2024/01/17 04:22:31;;;;;;;15.57;6.63;;;-2.30;99.90;;;;;;4940471;29;20043;-60
2024/01/17 04:24:58;;;;;;;15.40;6.97;;;-2.20;99.90;;;;;;4952263;28;20035;-59
2024/01/17 04:27:25;;;;;;;11.35;6.55;;;-2.20;99.90;;;;;;4949780;29;20046;-60
2024/01/17 04:29:51;;;;;;;13.60;6.30;;;-2.20;99.90;;;;;;4942733;29;20409;-59
2024/01/17 04:32:18;;;;;;;10.95;5.30;;;-2.20;99.90;;;;;;4944017;29;20047;-61
2024/01/17 04:34:45;;;;;;;11.05;5.82;;;-2.20;99.90;;;;;;4952748;28;20043;-59
2024/01/17 04:37:12;;;;;;;7.93;4.80;;;-2.20;99.90;;;;;;4951991;29;20496;-59
2024/01/17 04:39:39;;;;;;;11.30;5.60;;;-2.30;99.90;;;;;;4951612;29;20477;-60
2024/01/17 04:42:06;;;;;;;11.88;5.90;;;-2.30;99.90;;;;;;4952789;29;20047;-60
2024/01/17 04:44:32;;;;;;;12.63;5.80;;;-2.30;99.90;;;;;;4952459;28;20088;-60
2024/01/17 04:47:00;;;;;;;11.52;6.18;;;-2.20;99.90;;;;;;4945073;29;20047;-59
2024/01/17 04:49:27;;;;;;;;;;;-2.30;99.90;;;;;;4947868;29;20047;-60
2024/01/17 04:51:55;;;;;;;14.73;6.25;;;-2.30;99.90;;;;;;4952908;29;19970;-60
2024/01/17 04:54:23;;;;;;;14.98;6.00;;;-2.20;99.90;;;;;;4950466;28;20143;-60
2024/01/17 04:56:50;;;;;;;12.73;6.40;;;-2.20;99.90;;;;;;4930059;29;20051;-60
2024/01/17 04:59:17;;;;;;;13.38;6.25;;;-2.10;99.90;;;;;;4951250;29;20048;-59
2024/01/17 05:01:44;;;;;;;14.98;7.10;;;-2.10;99.90;;;;;;4951122;29;20050;-60
2024/01/17 05:04:10;;;;;;;16.90;7.20;;;-2.10;99.90;;;;;;4946864;29;20054;-60
2024/01/17 05:06:37;;;;;;;12.13;6.15;;;-2.20;99.90;;;;;;4954042;28;20039;-59
2024/01/17 05:09:07;;;;;;;22.10;8.05;;;-2.10;99.90;;;;;;4956588;29;20051;-60
2024/01/17 05:11:34;;;;;;;12.23;6.78;;;-2.10;99.90;;;;;;4947582;29;20054;-58
2024/01/17 05:14:01;;;;;;;13.52;6.80;;;-2.10;99.90;;;;;;4956450;28;20115;-59
2024/01/17 05:16:28;;;;;;;15.43;6.88;;;-2.20;99.90;;;;;;4947833;29;20035;-58
2024/01/17 05:18:55;;;;;;;27.55;11.63;;;-2.10;99.90;;;;;;4952243;29;20790;-59
2024/01/17 05:21:22;;;;;;;17.00;7.60;;;-2.20;99.90;;;;;;4945620;29;20044;-60
2024/01/17 05:23:49;;;;;;;18.77;7.28;;;-2.20;99.90;;;;;;4948980;28;20455;-59
2024/01/17 05:26:16;;;;;;;12.35;6.40;;;-2.20;99.90;;;;;;4947759;29;20127;-59
2024/01/17 05:28:43;;;;;;;16.88;6.95;;;-2.10;99.90;;;;;;4955647;29;20047;-59
2024/01/17 05:31:10;;;;;;;13.27;6.70;;;-2.10;99.90;;;;;;4953296;29;20043;-61
2024/01/17 05:33:37;;;;;;;;;;;-2.00;99.90;;;;;;4938702;28;20496;-60
2024/01/17 05:36:04;;;;;;;15.18;7.30;;;-1.90;99.90;;;;;;4947313;29;19973;-58
2024/01/17 05:38:31;;;;;;;11.30;6.13;;;-1.90;99.90;;;;;;4954499;29;20548;-60
2024/01/17 05:40:57;;;;;;;13.85;6.75;;;-1.90;99.90;;;;;;4946769;28;20040;-59
2024/01/17 05:43:24;;;;;;;12.82;6.57;;;-1.90;99.90;;;;;;4944087;29;20052;-58
2024/01/17 05:45:51;;;;;;;14.80;7.20;;;-2.00;99.90;;;;;;4955517;28;20043;-60
2024/01/17 05:48:18;;;;;;;17.10;8.00;;;-2.00;99.90;;;;;;4953980;29;20047;-60
2024/01/17 05:50:45;;;;;;;;;;;-1.90;99.90;;;;;;4956028;29;20050;-60
2024/01/17 05:53:12;;;;;;;17.05;7.63;;;-2.00;99.90;;;;;;4947060;29;20006;-59
2024/01/17 05:55:39;;;;;;;15.07;6.68;;;-1.90;99.90;;;;;;4947558;29;20047;-58
2024/01/17 05:58:05;;;;;;;11.90;6.47;;;-1.90;99.90;;;;;;4946769;29;20047;-61
2024/01/17 06:00:32;;;;;;;17.08;6.68;;;-2.00;99.90;;;;;;4952205;29;20671;-60
2024/01/17 06:02:59;;;;;;;18.45;7.22;;;-1.90;99.90;;;;;;4949036;29;20039;-60
2024/01/17 06:05:26;;;;;;;18.98;8.77;;;-1.90;99.90;;;;;;4953254;28;20047;-60
2024/01/17 06:07:55;;;;;;;20.15;8.63;;;-1.90;99.90;;;;;;4955286;29;20126;-60
2024/01/17 06:10:23;;;;;;;17.67;8.77;;;-1.90;99.90;;;;;;4946636;29;20134;-58
2024/01/17 06:12:50;;;;;;;20.35;8.48;;;-1.90;99.90;;;;;;4949122;29;20046;-57
2024/01/17 06:15:17;;;;;;;17.45;8.50;;;-1.90;99.90;;;;;;4946532;28;20054;-60
2024/01/17 06:17:45;;;;;;;17.92;7.50;;;-1.80;99.90;;;;;;4954103;28;20125;-60
2024/01/17 06:20:12;;;;;;;27.08;8.50;;;-1.80;99.90;;;;;;4953813;28;20436;-59
2024/01/17 06:22:38;;;;;;;15.85;7.70;;;-1.90;99.90;;;;;;4954031;29;20039;-60
2024/01/17 06:25:07;;;;;;;21.20;8.85;;;-1.90;99.90;;;;;;4952458;28;20035;-57
2024/01/17 06:27:34;;;;;;;17.73;8.43;;;-1.90;99.90;;;;;;4953569;29;20857;-59
2024/01/17 06:30:01;;;;;;;18.83;8.93;;;-1.90;99.90;;;;;;4955172;29;20536;-60
2024/01/17 06:32:28;;;;;;;24.05;9.00;;;-1.90;99.90;;;;;;4952713;29;20111;-60
2024/01/17 06:34:55;;;;;;;;;;;-1.90;99.90;;;;;;4955277;28;20091;-59
2024/01/17 06:37:22;;;;;;;19.58;9.32;;;-2.00;99.90;;;;;;4953294;29;19930;-60
2024/01/17 06:39:49;;;;;;;24.55;10.43;;;-2.00;99.90;;;;;;4950103;28;20047;-60
2024/01/17 06:42:16;;;;;;;16.42;7.22;;;-1.90;99.90;;;;;;4946472;29;20054;-59
2024/01/17 06:44:44;;;;;;;14.65;7.30;;;-1.90;99.90;;;;;;4950630;28;20047;-61
2024/01/17 06:47:11;;;;;;;15.93;7.45;;;-1.90;99.90;;;;;;4945774;29;20527;-61
2024/01/17 06:49:39;;;;;;;18.98;7.50;;;-1.90;99.90;;;;;;4954577;29;20043;-59
2024/01/17 06:52:07;;;;;;;15.13;7.13;;;-1.80;99.90;;;;;;4954503;29;20087;-58
2024/01/17 06:54:34;;;;;;;18.05;8.13;;;-1.80;99.90;;;;;;4954548;28;20047;-59
2024/01/17 06:57:00;;;;;;;17.50;8.18;;;-1.80;99.90;;;;;;4950017;29;20043;-60
2024/01/17 06:59:27;;;;;;;14.75;7.05;;;-1.80;99.90;;;;;;4954638;29;20099;-60
2024/01/17 07:01:54;;;;;;;15.85;7.78;;;-1.90;99.90;;;;;;4953826;29;20035;-60
2024/01/17 07:04:21;;;;;;;21.25;7.93;;;-1.80;99.90;;;;;;4945977;29;20055;-60
2024/01/17 07:06:48;;;;;;;19.85;7.72;;;-1.80;99.90;;;;;;4946203;29;20039;-60
2024/01/17 07:09:15;;;;;;;;;;;-1.80;99.90;;;;;;4954881;29;20076;-59
2024/01/17 07:11:42;;;;;;;17.90;7.50;;;-1.80;99.90;;;;;;4951355;29;19923;-60
2024/01/17 07:14:09;;;;;;;17.05;7.97;;;-1.80;99.90;;;;;;4953950;28;20086;-58
2024/01/17 07:16:36;;;;;;;14.82;7.35;;;-1.70;99.90;;;;;;4952817;28;20126;-60
2024/01/17 07:19:03;;;;;;;17.40;7.72;;;-1.70;99.90;;;;;;4953675;29;20039;-61
2024/01/17 07:21:30;;;;;;;;;;;-1.70;99.90;;;;;;4950008;29;20392;-60
2024/01/17 07:23:57;;;;;;;19.98;7.72;;;-1.60;99.90;;;;;;4949803;28;19957;-61
2024/01/17 07:26:26;;;;;;;16.38;8.00;;;-1.60;99.90;;;;;;4951701;29;20107;-59
2024/01/17 07:28:53;;;;;;;20.98;8.60;;;-1.50;99.90;;;;;;4952041;28;20050;-60
2024/01/17 07:31:20;;;;;;;15.82;7.97;;;-1.50;99.90;;;;;;4950453;29;20091;-59
2024/01/17 07:33:46;;;;;;;15.27;7.63;;;-1.50;99.90;;;;;;4952067;28;20138;-58
2024/01/17 07:36:14;;;;;;;16.83;8.50;;;-1.40;99.90;;;;;;4949152;29;20047;-60
2024/01/17 07:38:41;;;;;;;21.13;8.32;;;-1.40;99.90;;;;;;4953278;29;20046;-60
2024/01/17 07:41:08;;;;;;;;;;;-1.40;99.90;;;;;;4950888;29;20055;-60
2024/01/17 07:43:35;;;;;;;16.13;7.82;;;-1.40;99.90;;;;;;4952655;28;19927;-57
2024/01/17 07:46:01;;;;;;;18.42;9.10;;;-1.30;99.90;;;;;;4953577;29;20133;-60
2024/01/17 07:48:28;;;;;;;17.42;8.43;;;-1.40;99.90;;;;;;4946933;29;20504;-59
2024/01/17 07:50:55;;;;;;;28.27;11.05;;;-1.40;99.90;;;;;;4953639;29;20039;-60
2024/01/17 07:53:22;;;;;;;20.70;10.30;;;-1.40;99.90;;;;;;4949410;28;20044;-59
2024/01/17 07:55:49;;;;;;;20.90;10.90;;;-1.40;99.90;;;;;;4953019;28;20035;-60
2024/01/17 07:58:16;;;;;;;17.83;9.55;;;-1.40;99.90;;;;;;4953302;29;20122;-59
2024/01/17 08:00:43;;;;;;;18.08;10.57;;;-1.40;99.90;;;;;;4950091;29;20047;-60
2024/01/17 08:03:10;;;;;;;13.88;7.10;;;-1.40;99.90;;;;;;4950569;29;20130;-59
2024/01/17 08:05:37;;;;;;;;;;;-1.30;99.90;;;;;;4953323;28;20107;-60
2024/01/17 08:08:04;;;;;;;16.80;8.45;;;-1.30;99.90;;;;;;4953124;29;20361;-61
2024/01/17 08:10:32;;;;;;;22.08;10.40;;;-1.30;99.90;;;;;;4950234;29;20069;-60
2024/01/17 08:12:59;;;;;;;20.55;9.02;;;-1.20;99.90;;;;;;4952866;29;20408;-60
2024/01/17 08:15:26;;;;;;;16.42;7.00;;;-1.20;99.90;;;;;;4952785;28;20512;-59
2024/01/17 08:17:53;;;;;;;18.30;8.63;;;-1.10;99.90;;;;;;4952502;28;20050;-60
2024/01/17 08:20:20;;;;;;;15.38;7.53;;;-1.20;99.90;;;;;;4950469;29;20050;-59
2024/01/17 08:22:47;;;;;;;17.77;8.60;;;-1.20;99.90;;;;;;4952012;29;20556;-59
2024/01/17 08:25:14;;;;;;;22.95;10.43;;;-1.10;99.90;;;;;;4952743;28;20050;-58
2024/01/17 08:27:41;;;;;;;23.42;11.32;;;-1.00;99.90;;;;;;4952695;29;20102;-59
2024/01/17 08:30:11;;;;;;;23.80;10.73;;;-1.00;99.90;;;;;;4947810;29;20035;-60
2024/01/17 08:32:38;;;;;;;21.90;9.00;;;-1.00;99.90;;;;;;4952341;29;20398;-59
2024/01/17 08:35:06;;;;;;;;;;;-1.00;99.90;;;;;;4953487;28;20043;-60
2024/01/17 08:37:34;;;;;;;19.27;8.45;;;-0.90;99.90;;;;;;4948784;29;19923;-59
2024/01/17 08:40:01;;;;;;;;;;;-0.90;99.90;;;;;;4953166;29;20051;-60
2024/01/17 08:42:28;;;;;;;19.48;7.25;;;-0.90;99.90;;;;;;4947062;28;20157;-60
2024/01/17 08:44:54;;;;;;;18.80;6.97;;;-0.90;99.90;;;;;;4956635;28;20071;-59
2024/01/17 08:47:21;;;;;;;17.05;7.22;;;-0.80;99.90;;;;;;4950117;29;20520;-58
2024/01/17 08:49:49;;;;;;;15.85;6.88;;;-0.70;99.90;;;;;;4955872;29;20050;-60
2024/01/17 08:52:16;;;;;;;13.05;6.82;;;-0.70;99.90;;;;;;4955499;29;20047;-59
2024/01/17 08:54:43;;;;;;;12.30;6.53;;;-0.60;99.90;;;;;;4949586;28;20066;-59
2024/01/17 08:57:10;;;;;;;13.90;6.93;;;-0.50;99.90;;;;;;4952315;29;20047;-61
2024/01/17 08:59:36;;;;;;;14.93;8.60;;;-0.40;99.90;;;;;;4955982;29;20142;-59
2024/01/17 09:02:03;;;;;;;15.02;7.13;;;-0.20;99.90;;;;;;4953007;29;20094;-59
2024/01/17 09:04:31;;;;;;;16.67;7.03;;;-0.10;99.90;;;;;;4955856;28;20568;-59
2024/01/17 09:06:58;;;;;;;13.90;7.13;;;-0.10;99.90;;;;;;4956397;29;20489;-58
2024/01/17 09:09:25;;;;;;;17.05;7.57;;;0.00;99.90;;;;;;4956134;29;20046;-59
2024/01/17 09:11:53;;;;;;;18.15;7.82;;;0.00;99.90;;;;;;4950157;28;20043;-59
2024/01/17 09:14:21;;;;;;;17.23;8.68;;;0.00;99.90;;;;;;4955769;28;20417;-60
2024/01/17 09:16:51;;;;;;;15.30;7.63;;;0.00;99.90;;;;;;4955786;29;20048;-60
2024/01/17 09:19:20;;;;;;;12.00;6.03;;;0.10;99.90;;;;;;4956088;29;20045;-60
2024/01/17 09:21:48;;;;;;;16.67;6.47;;;0.20;99.90;;;;;;4947162;29;20071;-60
2024/01/17 09:24:15;;;;;;;15.90;7.15;;;0.20;99.90;;;;;;4955830;28;20058;-61
2024/01/17 09:26:42;;;;;;;16.85;6.97;;;0.10;99.90;;;;;;4952573;29;20044;-56
2024/01/17 09:29:09;;;;;;;14.48;6.93;;;0.00;99.90;;;;;;4955920;29;20051;-59
2024/01/17 09:31:36;;;;;;;24.20;10.65;;;0.10;99.90;;;;;;4954624;29;20062;-60
2024/01/17 09:34:03;;;;;;;22.35;11.25;;;-0.10;99.90;;;;;;4954015;28;20058;-58
2024/01/17 09:36:30;;;;;;;26.38;12.20;;;-0.10;99.90;;;;;;4943900;29;20039;-59
2024/01/17 09:38:57;;;;;;;15.98;7.65;;;-0.10;99.90;;;;;;4947751;29;20075;-59
2024/01/17 09:41:24;;;;;;;;;;;0.00;99.90;;;;;;4943643;29;20063;-60
2024/01/17 09:43:52;;;;;;;15.35;7.47;;;0.10;99.90;;;;;;4954132;28;20300;-59
2024/01/17 09:46:19;;;;;;;19.45;9.27;;;0.10;99.90;;;;;;4950207;29;20050;-57
2024/01/17 09:48:46;;;;;;;16.67;8.18;;;0.20;99.90;;;;;;4955132;29;20085;-59
2024/01/17 09:51:14;;;;;;;;;;;0.10;99.90;;;;;;4951087;29;20048;-57
2024/01/17 09:53:48;;;;;;;9.35;4.70;;;0.10;99.90;;;;;;4946936;28;19965;-60
2024/01/17 09:56:18;;;;;;;17.00;7.47;;;0.00;99.90;;;;;;4948720;29;20047;-60
2024/01/17 09:58:47;;;;;;;12.40;6.40;;;0.00;99.90;;;;;;4954764;29;20058;-59
2024/01/17 10:01:15;;;;;;;11.70;6.93;;;0.00;99.90;;;;;;4955209;29;20135;-58
2024/01/17 10:03:44;;;;;;;10.20;6.18;;;-0.10;99.90;;;;;;4952000;29;20469;-57
2024/01/17 10:06:14;;;;;;;14.32;6.40;;;-0.10;99.90;;;;;;4955158;29;20111;-60
2024/01/17 10:08:43;;;;;;;15.70;6.47;;;-0.10;99.90;;;;;;4955143;29;20043;-60
2024/01/17 10:11:10;;;;;;;16.98;6.95;;;-0.10;99.90;;;;;;4946881;29;20126;-60
2024/01/17 10:13:37;;;;;;;14.25;7.15;;;0.10;99.90;;;;;;4954235;28;20469;-60
2024/01/17 10:16:04;;;;;;;14.40;6.95;;;0.10;99.90;;;;;;4954937;29;20082;-60
2024/01/17 10:18:32;;;;;;;14.50;7.20;;;0.20;99.90;;;;;;4947176;29;20055;-59
2024/01/17 10:20:59;;;;;;;16.38;7.43;;;0.20;99.90;;;;;;4946683;29;20046;-58
2024/01/17 10:23:26;;;;;;;17.05;8.27;;;0.20;99.90;;;;;;4937363;29;20039;-57
2024/01/17 10:25:53;;;;;;;;;;;0.30;99.90;;;;;;4954898;28;20140;-60
2024/01/17 10:28:20;;;;;;;12.38;6.78;;;0.40;99.90;;;;;;4948721;29;19922;-60
2024/01/17 10:30:47;;;;;;;12.82;4.95;;;0.70;99.90;;;;;;4954531;29;20053;-60
2024/01/17 10:33:13;;;;;;;16.25;5.97;;;0.80;99.90;;;;;;4954235;29;20087;-59
2024/01/17 10:35:41;;;;;;;14.02;5.72;;;0.80;99.90;;;;;;4945965;28;20051;-59
2024/01/17 10:38:08;;;;;;;12.57;5.65;;;0.90;99.90;;;;;;4954479;29;20051;-58
2024/01/17 10:40:35;;;;;;;12.02;4.93;;;0.90;99.90;;;;;;4954342;29;20043;-60
2024/01/17 10:43:04;;;;;;;12.75;5.82;;;1.00;99.90;;;;;;4947458;28;20043;-59
2024/01/17 10:45:35;;;;;;;10.70;4.82;;;1.10;99.90;;;;;;4954595;28;20043;-57
2024/01/17 10:48:02;;;;;;;12.38;5.07;;;1.00;99.90;;;;;;4954391;29;20134;-60
2024/01/17 10:50:29;;;;;;;;;;;1.00;99.90;;;;;;4950838;29;20501;-58
2024/01/17 10:53:08;;;;;;;21.95;10.05;;;1.00;99.90;;;;;;4951561;29;19926;-59
2024/01/17 10:55:37;;;;;;;26.45;11.77;;;1.00;99.90;;;;;;4944342;29;20545;-60
2024/01/17 10:58:09;;;;;;;16.58;7.57;;;0.90;99.90;;;;;;4952746;29;20103;-59
2024/01/17 11:00:39;;;;;;;19.70;9.30;;;0.80;99.90;;;;;;4954247;29;20079;-59
2024/01/17 11:03:09;;;;;;;16.70;6.95;;;0.80;99.90;;;;;;4949124;29;20043;-58
2024/01/17 11:05:46;;;;;;;12.90;6.57;;;0.80;99.90;;;;;;4953848;28;20046;-59
2024/01/17 11:08:14;;;;;;;16.38;7.20;;;0.90;99.90;;;;;;4941738;29;20507;-59
2024/01/17 11:10:43;;;;;;;16.15;6.80;;;1.00;99.90;;;;;;4947158;29;20405;-60
2024/01/17 11:13:17;;;;;;;16.50;7.88;;;1.10;99.90;;;;;;4929471;29;20043;-60
2024/01/17 11:15:46;;;;;;;16.60;6.93;;;1.20;99.90;;;;;;4953532;28;20141;-60
2024/01/17 11:18:14;;;;;;;14.13;6.72;;;1.30;99.90;;;;;;4953979;29;20094;-59
2024/01/17 11:20:42;;;;;;;15.43;6.50;;;1.30;99.90;;;;;;4946916;29;20074;-60
2024/01/17 11:23:22;;;;;;;15.25;6.65;;;1.40;99.90;;;;;;4953458;29;20050;-60
2024/01/17 11:26:21;;;;;;;15.38;6.45;;;1.50;99.90;;;;;;4952573;28;20035;-60
2024/01/17 11:29:14;;;;;;;8.52;5.10;;;1.70;99.90;;;;;;4950774;29;20042;-60
2024/01/17 11:32:03;;;;;;;14.40;5.82;;;1.90;99.90;;;;;;4953358;29;20039;-59
2024/01/17 11:34:30;;;;;;;13.95;7.45;;;2.00;99.90;;;;;;4943610;28;20031;-60
2024/01/17 11:36:57;;;;;;;;;;;2.10;99.90;;;;;;4948115;29;20139;-59
2024/01/17 11:39:24;;;;;;;14.82;5.57;;;2.20;99.90;;;;;;4953593;29;19922;-60
2024/01/17 11:41:51;;;;;;;12.30;5.82;;;2.20;99.90;;;;;;4949342;29;20058;-60
2024/01/17 11:44:20;;;;;;;17.67;5.30;;;2.20;99.90;;;;;;4936109;29;20138;-60
2024/01/17 11:46:53;;;;;;;27.52;8.90;;;2.30;99.90;;;;;;4952903;29;20496;-60
2024/01/17 11:49:42;;;;;;;15.30;7.07;;;2.40;99.90;;;;;;4953551;29;20043;-60
2024/01/17 11:52:36;;;;;;;17.33;7.93;;;2.60;99.90;;;;;;4951913;29;20039;-59
2024/01/17 11:55:04;;;;;;;9.75;5.22;;;2.60;99.90;;;;;;4948892;29;20133;-60
2024/01/17 11:57:32;;;;;;;18.33;8.18;;;2.70;99.90;;;;;;4952792;29;20137;-59
2024/01/17 12:00:06;;;;;;;17.98;7.28;;;2.70;99.90;;;;;;4953083;29;20035;-59
2024/01/17 12:02:43;;;;;;;15.07;6.90;;;2.80;99.90;;;;;;4951172;29;20043;-59
2024/01/17 12:05:11;;;;;;;8.13;3.42;;;3.00;99.90;;;;;;4952962;28;20043;-60
2024/01/17 12:07:39;;;;;;;9.77;5.30;;;2.90;99.90;;;;;;4948771;29;20035;-60
2024/01/17 12:10:12;;;;;;;18.15;7.95;;;2.90;99.90;;;;;;4952992;29;20169;-59
2024/01/17 12:12:43;;;;;;;10.45;5.13;;;3.00;99.90;;;;;;4949647;29;20046;-59
2024/01/17 12:15:12;;;;;;;17.88;6.28;;;3.00;99.90;;;;;;4951984;28;20074;-58
2024/01/17 12:17:41;;;;;;;9.60;4.82;;;3.10;99.90;;;;;;4951996;29;20130;-60
2024/01/17 12:20:09;;;;;;;11.68;6.15;;;3.20;99.90;;;;;;4949003;29;20519;-59
2024/01/17 12:22:36;;;;;;;11.98;7.03;;;3.30;99.90;;;;;;4952622;29;20556;-61
2024/01/17 12:25:03;;;;;;;19.40;10.40;;;3.20;99.90;;;;;;4952520;28;20051;-60
2024/01/17 12:27:32;;;;;;;18.65;10.77;;;2.90;99.90;;;;;;4952763;29;20047;-58
2024/01/17 12:30:04;;;;;;;17.33;8.60;;;2.90;99.90;;;;;;4944458;29;20044;-60
2024/01/17 12:32:32;;;;;;;14.82;6.32;;;2.80;99.90;;;;;;4952584;29;20135;-60
2024/01/17 12:34:59;;;;;;;15.60;8.85;;;2.90;99.90;;;;;;4952812;28;20046;-60
2024/01/17 12:37:28;;;;;;;11.50;6.05;;;2.90;99.90;;;;;;4948808;29;20499;-59
2024/01/17 12:39:55;;;;;;;11.02;5.63;;;2.80;99.90;;;;;;4952881;29;20031;-60
2024/01/17 12:42:22;;;;;;;9.90;5.18;;;2.70;99.90;;;;;;4947365;29;20127;-60
2024/01/17 12:44:49;;;;;;;20.52;6.20;;;2.60;99.90;;;;;;4952778;28;20055;-60
2024/01/17 12:47:17;;;;;;;17.08;4.90;;;2.60;99.90;;;;;;4950579;29;20445;-60
2024/01/17 12:49:47;;;;;;;11.77;4.85;;;2.60;99.90;;;;;;4950926;29;20041;-59